sensor_id;sensor_type;location;lat;lon;timestamp;P1;durP1;ratioP1;P2;durP2;ratioP2
2854;SDS011;1435;49.472;10.940;2023-05-13T00:00:22;3.53;;;3.20;;
2854;SDS011;1435;49.472;10.940;2023-05-13T00:05:23;3.77;;;3.37;;
2854;SDS011;1435;49.472;10.940;2023-05-13T00:10:27;3.77;;;3.10;;
2854;SDS011;1435;49.472;10.940;2023-05-13T00:15:28;3.73;;;3.43;;
2854;SDS011;1435;49.472;10.940;2023-05-13T00:20:30;3.57;;;3.27;;
2854;SDS011;1435;49.472;10.940;2023-05-13T00:25:33;5.27;;;3.57;;
2854;SDS011;1435;49.472;10.940;2023-05-13T00:30:35;4.13;;;3.57;;
2854;SDS011;1435;49.472;10.940;2023-05-13T00:35:37;4.73;;;3.87;;
2854;SDS011;1435;49.472;10.940;2023-05-13T00:40:40;4.10;;;3.70;;
2854;SDS011;1435;49.472;10.940;2023-05-13T00:45:43;5.03;;;4.53;;
2854;SDS011;1435;49.472;10.940;2023-05-13T00:50:45;5.10;;;4.20;;
2854;SDS011;1435;49.472;10.940;2023-05-13T00:55:48;4.30;;;4.00;;
2854;SDS011;1435;49.472;10.940;2023-05-13T01:00:53;4.83;;;4.40;;
2854;SDS011;1435;49.472;10.940;2023-05-13T01:06:03;5.40;;;5.00;;
2854;SDS011;1435;49.472;10.940;2023-05-13T01:11:13;4.80;;;4.37;;
2854;SDS011;1435;49.472;10.940;2023-05-13T01:16:22;4.00;;;3.70;;
2854;SDS011;1435;49.472;10.940;2023-05-13T01:21:31;4.40;;;4.10;;
2854;SDS011;1435;49.472;10.940;2023-05-13T01:26:35;3.97;;;3.57;;
2854;SDS011;1435;49.472;10.940;2023-05-13T01:31:37;4.23;;;3.90;;
2854;SDS011;1435;49.472;10.940;2023-05-13T01:36:42;4.20;;;3.80;;
2854;SDS011;1435;49.472;10.940;2023-05-13T01:41:44;4.20;;;3.87;;
2854;SDS011;1435;49.472;10.940;2023-05-13T01:46:46;4.37;;;3.67;;
2854;SDS011;1435;49.472;10.940;2023-05-13T01:51:50;4.20;;;3.80;;
2854;SDS011;1435;49.472;10.940;2023-05-13T01:56:52;3.30;;;3.10;;
2854;SDS011;1435;49.472;10.940;2023-05-13T02:01:53;3.67;;;3.37;;
2854;SDS011;1435;49.472;10.940;2023-05-13T02:06:57;3.90;;;3.60;;
2854;SDS011;1435;49.472;10.940;2023-05-13T02:11:58;5.03;;;4.10;;
2854;SDS011;1435;49.472;10.940;2023-05-13T02:17:00;4.50;;;4.10;;
2854;SDS011;1435;49.472;10.940;2023-05-13T02:22:03;3.80;;;3.50;;
2854;SDS011;1435;49.472;10.940;2023-05-13T02:27:06;4.23;;;3.83;;
2854;SDS011;1435;49.472;10.940;2023-05-13T02:32:07;4.87;;;4.47;;
2854;SDS011;1435;49.472;10.940;2023-05-13T02:37:10;4.30;;;3.93;;
2854;SDS011;1435;49.472;10.940;2023-05-13T02:42:12;4.53;;;4.00;;
2854;SDS011;1435;49.472;10.940;2023-05-13T02:47:14;4.13;;;3.77;;
2854;SDS011;1435;49.472;10.940;2023-05-13T02:52:17;3.53;;;3.33;;
2854;SDS011;1435;49.472;10.940;2023-05-13T02:57:18;3.73;;;3.33;;
2854;SDS011;1435;49.472;10.940;2023-05-13T03:02:20;4.00;;;3.70;;
2854;SDS011;1435;49.472;10.940;2023-05-13T03:07:23;5.17;;;3.57;;
2854;SDS011;1435;49.472;10.940;2023-05-13T03:12:25;4.53;;;4.13;;
2854;SDS011;1435;49.472;10.940;2023-05-13T03:17:26;4.60;;;4.30;;
2854;SDS011;1435;49.472;10.940;2023-05-13T03:22:31;5.50;;;4.33;;
2854;SDS011;1435;49.472;10.940;2023-05-13T03:27:32;5.30;;;4.90;;
2854;SDS011;1435;49.472;10.940;2023-05-13T03:32:34;5.20;;;4.70;;
2854;SDS011;1435;49.472;10.940;2023-05-13T03:37:37;4.90;;;4.50;;
2854;SDS011;1435;49.472;10.940;2023-05-13T03:42:39;5.00;;;4.50;;
2854;SDS011;1435;49.472;10.940;2023-05-13T03:47:40;6.20;;;4.30;;
2854;SDS011;1435;49.472;10.940;2023-05-13T03:52:43;8.10;;;4.80;;
2854;SDS011;1435;49.472;10.940;2023-05-13T03:57:46;6.40;;;5.90;;
2854;SDS011;1435;49.472;10.940;2023-05-13T04:02:48;5.80;;;5.30;;
2854;SDS011;1435;49.472;10.940;2023-05-13T04:07:51;7.13;;;5.00;;
2854;SDS011;1435;49.472;10.940;2023-05-13T04:12:53;5.80;;;5.03;;
2854;SDS011;1435;49.472;10.940;2023-05-13T04:17:54;6.10;;;5.60;;
2854;SDS011;1435;49.472;10.940;2023-05-13T04:22:57;6.00;;;5.40;;
2854;SDS011;1435;49.472;10.940;2023-05-13T04:28:00;5.37;;;4.93;;
2854;SDS011;1435;49.472;10.940;2023-05-13T04:33:02;6.13;;;5.63;;
2854;SDS011;1435;49.472;10.940;2023-05-13T04:38:05;5.53;;;5.03;;
2854;SDS011;1435;49.472;10.940;2023-05-13T04:43:07;5.53;;;5.10;;
2854;SDS011;1435;49.472;10.940;2023-05-13T04:48:08;5.73;;;5.23;;
2854;SDS011;1435;49.472;10.940;2023-05-13T04:53:12;6.43;;;5.80;;
2854;SDS011;1435;49.472;10.940;2023-05-13T04:58:14;5.70;;;5.20;;
2854;SDS011;1435;49.472;10.940;2023-05-13T05:03:15;5.57;;;5.10;;
2854;SDS011;1435;49.472;10.940;2023-05-13T05:08:18;6.27;;;5.70;;
2854;SDS011;1435;49.472;10.940;2023-05-13T05:13:20;7.67;;;6.20;;
2854;SDS011;1435;49.472;10.940;2023-05-13T05:18:21;7.23;;;6.20;;
2854;SDS011;1435;49.472;10.940;2023-05-13T05:23:24;6.60;;;6.10;;
2854;SDS011;1435;49.472;10.940;2023-05-13T05:28:26;5.70;;;5.30;;
2854;SDS011;1435;49.472;10.940;2023-05-13T05:33:28;6.80;;;6.07;;
2854;SDS011;1435;49.472;10.940;2023-05-13T05:38:31;6.50;;;5.90;;
2854;SDS011;1435;49.472;10.940;2023-05-13T05:43:33;7.20;;;6.60;;
2854;SDS011;1435;49.472;10.940;2023-05-13T05:48:35;7.27;;;6.60;;
2854;SDS011;1435;49.472;10.940;2023-05-13T05:53:38;7.20;;;6.10;;
2854;SDS011;1435;49.472;10.940;2023-05-13T05:58:40;6.73;;;5.57;;
2854;SDS011;1435;49.472;10.940;2023-05-13T06:03:41;6.80;;;6.00;;
2854;SDS011;1435;49.472;10.940;2023-05-13T06:08:46;7.10;;;6.40;;
2854;SDS011;1435;49.472;10.940;2023-05-13T06:13:47;5.67;;;5.10;;
2854;SDS011;1435;49.472;10.940;2023-05-13T06:18:50;7.93;;;7.23;;
2854;SDS011;1435;49.472;10.940;2023-05-13T06:23:53;6.87;;;6.27;;
2854;SDS011;1435;49.472;10.940;2023-05-13T06:28:54;6.67;;;6.07;;
2854;SDS011;1435;49.472;10.940;2023-05-13T06:33:56;6.47;;;5.97;;
2854;SDS011;1435;49.472;10.940;2023-05-13T06:38:59;5.97;;;5.47;;
2854;SDS011;1435;49.472;10.940;2023-05-13T06:44:01;5.83;;;5.33;;
2854;SDS011;1435;49.472;10.940;2023-05-13T06:49:02;5.57;;;5.07;;
2854;SDS011;1435;49.472;10.940;2023-05-13T06:54:05;5.90;;;5.27;;
2854;SDS011;1435;49.472;10.940;2023-05-13T06:59:08;5.97;;;5.03;;
2854;SDS011;1435;49.472;10.940;2023-05-13T07:04:09;11.20;;;5.10;;
2854;SDS011;1435;49.472;10.940;2023-05-13T07:09:12;5.70;;;5.23;;
2854;SDS011;1435;49.472;10.940;2023-05-13T07:14:14;5.20;;;4.80;;
2854;SDS011;1435;49.472;10.940;2023-05-13T07:19:16;4.57;;;4.17;;
2854;SDS011;1435;49.472;10.940;2023-05-13T07:24:19;6.10;;;5.50;;
2854;SDS011;1435;49.472;10.940;2023-05-13T07:29:21;10.70;;;9.73;;
2854;SDS011;1435;49.472;10.940;2023-05-13T07:34:22;5.87;;;5.40;;
2854;SDS011;1435;49.472;10.940;2023-05-13T07:39:25;6.20;;;5.70;;
2854;SDS011;1435;49.472;10.940;2023-05-13T07:44:27;5.03;;;4.50;;
2854;SDS011;1435;49.472;10.940;2023-05-13T07:49:29;4.33;;;4.00;;
2854;SDS011;1435;49.472;10.940;2023-05-13T07:54:32;6.30;;;4.47;;
2854;SDS011;1435;49.472;10.940;2023-05-13T07:59:34;4.20;;;3.87;;
2854;SDS011;1435;49.472;10.940;2023-05-13T08:04:35;3.93;;;3.63;;
2854;SDS011;1435;49.472;10.940;2023-05-13T08:09:38;4.73;;;4.33;;
2854;SDS011;1435;49.472;10.940;2023-05-13T08:14:40;5.77;;;4.90;;
2854;SDS011;1435;49.472;10.940;2023-05-13T08:19:42;5.10;;;4.70;;
2854;SDS011;1435;49.472;10.940;2023-05-13T08:24:45;5.57;;;5.17;;
2854;SDS011;1435;49.472;10.940;2023-05-13T08:29:47;4.87;;;4.47;;
2854;SDS011;1435;49.472;10.940;2023-05-13T08:34:48;4.30;;;3.90;;
2854;SDS011;1435;49.472;10.940;2023-05-13T08:39:51;5.80;;;5.30;;
2854;SDS011;1435;49.472;10.940;2023-05-13T08:44:54;4.33;;;3.97;;
2854;SDS011;1435;49.472;10.940;2023-05-13T08:49:56;4.57;;;4.13;;
2854;SDS011;1435;49.472;10.940;2023-05-13T08:55:00;4.00;;;3.70;;
2854;SDS011;1435;49.472;10.940;2023-05-13T09:00:02;4.00;;;3.70;;
2854;SDS011;1435;49.472;10.940;2023-05-13T09:05:04;3.17;;;2.97;;
2854;SDS011;1435;49.472;10.940;2023-05-13T09:10:09;3.97;;;3.67;;
2854;SDS011;1435;49.472;10.940;2023-05-13T09:15:11;4.73;;;4.33;;
2854;SDS011;1435;49.472;10.940;2023-05-13T09:20:14;3.87;;;3.47;;
2854;SDS011;1435;49.472;10.940;2023-05-13T09:25:20;3.10;;;2.90;;
2854;SDS011;1435;49.472;10.940;2023-05-13T09:30:23;3.93;;;3.23;;
2854;SDS011;1435;49.472;10.940;2023-05-13T09:35:25;4.33;;;3.97;;
2854;SDS011;1435;49.472;10.940;2023-05-13T09:40:28;3.73;;;3.43;;
2854;SDS011;1435;49.472;10.940;2023-05-13T09:45:31;3.50;;;3.20;;
2854;SDS011;1435;49.472;10.940;2023-05-13T09:50:32;3.47;;;3.27;;
2854;SDS011;1435;49.472;10.940;2023-05-13T09:55:35;3.60;;;3.30;;
2854;SDS011;1435;49.472;10.940;2023-05-13T10:00:37;4.07;;;3.77;;
2854;SDS011;1435;49.472;10.940;2023-05-13T10:05:41;3.87;;;3.57;;
2854;SDS011;1435;49.472;10.940;2023-05-13T10:10:44;4.83;;;3.53;;
2854;SDS011;1435;49.472;10.940;2023-05-13T10:15:50;2.83;;;2.63;;
2854;SDS011;1435;49.472;10.940;2023-05-13T10:20:52;3.10;;;2.90;;
2854;SDS011;1435;49.472;10.940;2023-05-13T10:25:57;3.63;;;3.33;;
2854;SDS011;1435;49.472;10.940;2023-05-13T10:30:59;4.60;;;3.47;;
2854;SDS011;1435;49.472;10.940;2023-05-13T10:36:06;3.13;;;2.93;;
2854;SDS011;1435;49.472;10.940;2023-05-13T10:41:24;2.50;;;2.30;;
2854;SDS011;1435;49.472;10.940;2023-05-13T10:46:40;4.50;;;3.20;;
2854;SDS011;1435;49.472;10.940;2023-05-13T10:51:43;3.60;;;3.30;;
2854;SDS011;1435;49.472;10.940;2023-05-13T10:56:49;2.90;;;2.70;;
2854;SDS011;1435;49.472;10.940;2023-05-13T11:01:56;2.93;;;2.73;;
2854;SDS011;1435;49.472;10.940;2023-05-13T11:07:12;3.20;;;3.00;;
2854;SDS011;1435;49.472;10.940;2023-05-13T11:12:16;4.00;;;3.70;;
2854;SDS011;1435;49.472;10.940;2023-05-13T11:17:18;6.10;;;5.60;;
2854;SDS011;1435;49.472;10.940;2023-05-13T11:22:21;4.90;;;4.50;;
2854;SDS011;1435;49.472;10.940;2023-05-13T11:27:25;5.17;;;4.77;;
2854;SDS011;1435;49.472;10.940;2023-05-13T11:37:51;5.73;;;5.23;;
2854;SDS011;1435;49.472;10.940;2023-05-13T11:42:55;3.17;;;2.97;;
2854;SDS011;1435;49.472;10.940;2023-05-13T11:47:58;3.67;;;3.43;;
2854;SDS011;1435;49.472;10.940;2023-05-13T11:53:18;4.27;;;3.40;;
2854;SDS011;1435;49.472;10.940;2023-05-13T11:58:23;3.50;;;3.30;;
2854;SDS011;1435;49.472;10.940;2023-05-13T12:03:26;2.90;;;2.60;;
2854;SDS011;1435;49.472;10.940;2023-05-13T12:08:28;3.77;;;3.43;;
2854;SDS011;1435;49.472;10.940;2023-05-13T12:13:31;2.80;;;2.60;;
2854;SDS011;1435;49.472;10.940;2023-05-13T12:18:33;3.63;;;3.33;;
2854;SDS011;1435;49.472;10.940;2023-05-13T12:23:37;4.53;;;4.00;;
2854;SDS011;1435;49.472;10.940;2023-05-13T12:28:41;20.40;;;11.70;;
2854;SDS011;1435;49.472;10.940;2023-05-13T12:33:43;5.47;;;4.90;;
2854;SDS011;1435;49.472;10.940;2023-05-13T12:44:03;9.57;;;7.27;;
2854;SDS011;1435;49.472;10.940;2023-05-13T12:49:08;11.30;;;9.47;;
2854;SDS011;1435;49.472;10.940;2023-05-13T12:54:11;4.73;;;4.33;;
2854;SDS011;1435;49.472;10.940;2023-05-13T12:59:14;4.37;;;4.07;;
2854;SDS011;1435;49.472;10.940;2023-05-13T13:04:18;4.77;;;4.37;;
2854;SDS011;1435;49.472;10.940;2023-05-13T13:09:19;5.27;;;4.47;;
2854;SDS011;1435;49.472;10.940;2023-05-13T13:14:22;4.10;;;3.80;;
2854;SDS011;1435;49.472;10.940;2023-05-13T13:19:25;3.03;;;2.83;;
2854;SDS011;1435;49.472;10.940;2023-05-13T13:24:26;6.60;;;5.33;;
2854;SDS011;1435;49.472;10.940;2023-05-13T13:29:29;2.67;;;2.57;;
2854;SDS011;1435;49.472;10.940;2023-05-13T13:34:31;3.50;;;3.20;;
2854;SDS011;1435;49.472;10.940;2023-05-13T13:39:33;2.83;;;2.63;;
2854;SDS011;1435;49.472;10.940;2023-05-13T13:44:36;2.13;;;2.03;;
2854;SDS011;1435;49.472;10.940;2023-05-13T13:49:38;3.20;;;2.90;;
2854;SDS011;1435;49.472;10.940;2023-05-13T13:54:40;3.30;;;3.00;;
2854;SDS011;1435;49.472;10.940;2023-05-13T13:59:43;2.73;;;2.53;;
2854;SDS011;1435;49.472;10.940;2023-05-13T14:04:44;3.00;;;2.80;;
2854;SDS011;1435;49.472;10.940;2023-05-13T14:09:46;2.40;;;2.20;;
2854;SDS011;1435;49.472;10.940;2023-05-13T14:14:50;2.70;;;2.50;;
2854;SDS011;1435;49.472;10.940;2023-05-13T14:19:51;2.27;;;2.17;;
2854;SDS011;1435;49.472;10.940;2023-05-13T14:24:54;4.60;;;3.27;;
2854;SDS011;1435;49.472;10.940;2023-05-13T14:29:57;2.90;;;2.63;;
2854;SDS011;1435;49.472;10.940;2023-05-13T14:34:59;4.67;;;3.30;;
2854;SDS011;1435;49.472;10.940;2023-05-13T14:40:00;2.43;;;2.23;;
2854;SDS011;1435;49.472;10.940;2023-05-13T14:45:04;3.37;;;3.17;;
2854;SDS011;1435;49.472;10.940;2023-05-13T14:50:07;5.80;;;5.17;;
2854;SDS011;1435;49.472;10.940;2023-05-13T14:55:11;3.50;;;3.20;;
2854;SDS011;1435;49.472;10.940;2023-05-13T15:00:14;3.60;;;3.40;;
2854;SDS011;1435;49.472;10.940;2023-05-13T15:05:17;3.40;;;3.20;;
2854;SDS011;1435;49.472;10.940;2023-05-13T15:10:18;3.80;;;3.50;;
2854;SDS011;1435;49.472;10.940;2023-05-13T15:15:21;4.17;;;3.87;;
2854;SDS011;1435;49.472;10.940;2023-05-13T15:20:23;3.37;;;3.07;;
2854;SDS011;1435;49.472;10.940;2023-05-13T15:25:25;7.70;;;5.30;;
2854;SDS011;1435;49.472;10.940;2023-05-13T15:30:28;4.40;;;4.10;;
2854;SDS011;1435;49.472;10.940;2023-05-13T15:35:29;2.70;;;2.50;;
2854;SDS011;1435;49.472;10.940;2023-05-13T15:40:31;3.10;;;2.90;;
2854;SDS011;1435;49.472;10.940;2023-05-13T15:45:34;2.57;;;2.40;;
2854;SDS011;1435;49.472;10.940;2023-05-13T15:50:36;2.23;;;2.13;;
2854;SDS011;1435;49.472;10.940;2023-05-13T15:55:38;2.50;;;2.30;;
2854;SDS011;1435;49.472;10.940;2023-05-13T16:00:41;3.40;;;3.03;;
2854;SDS011;1435;49.472;10.940;2023-05-13T16:05:42;5.90;;;5.33;;
2854;SDS011;1435;49.472;10.940;2023-05-13T16:10:44;2.00;;;1.90;;
2854;SDS011;1435;49.472;10.940;2023-05-13T16:15:47;3.03;;;2.73;;
2854;SDS011;1435;49.472;10.940;2023-05-13T16:20:49;8.80;;;7.87;;
2854;SDS011;1435;49.472;10.940;2023-05-13T16:25:51;2.90;;;2.70;;
2854;SDS011;1435;49.472;10.940;2023-05-13T16:30:55;1.90;;;1.80;;
2854;SDS011;1435;49.472;10.940;2023-05-13T16:35:56;4.73;;;4.33;;
2854;SDS011;1435;49.472;10.940;2023-05-13T16:40:58;5.37;;;4.87;;
2854;SDS011;1435;49.472;10.940;2023-05-13T16:46:01;3.93;;;3.00;;
2854;SDS011;1435;49.472;10.940;2023-05-13T16:51:03;4.00;;;3.60;;
2854;SDS011;1435;49.472;10.940;2023-05-13T16:56:05;5.10;;;4.60;;
2854;SDS011;1435;49.472;10.940;2023-05-13T17:01:08;3.60;;;3.30;;
2854;SDS011;1435;49.472;10.940;2023-05-13T17:06:10;2.70;;;2.50;;
2854;SDS011;1435;49.472;10.940;2023-05-13T17:11:12;2.33;;;2.03;;
2854;SDS011;1435;49.472;10.940;2023-05-13T17:16:17;2.10;;;1.90;;
2854;SDS011;1435;49.472;10.940;2023-05-13T17:21:19;2.50;;;2.30;;
2854;SDS011;1435;49.472;10.940;2023-05-13T17:26:21;2.70;;;2.50;;
2854;SDS011;1435;49.472;10.940;2023-05-13T17:31:24;3.83;;;3.53;;
2854;SDS011;1435;49.472;10.940;2023-05-13T17:36:25;2.63;;;2.43;;
2854;SDS011;1435;49.472;10.940;2023-05-13T17:41:27;3.03;;;2.83;;
2854;SDS011;1435;49.472;10.940;2023-05-13T17:46:30;2.97;;;2.77;;
2854;SDS011;1435;49.472;10.940;2023-05-13T17:51:32;2.60;;;2.10;;
2854;SDS011;1435;49.472;10.940;2023-05-13T17:56:33;3.73;;;3.40;;
2854;SDS011;1435;49.472;10.940;2023-05-13T18:01:36;12.40;;;8.30;;
2854;SDS011;1435;49.472;10.940;2023-05-13T18:06:38;9.80;;;7.47;;
2854;SDS011;1435;49.472;10.940;2023-05-13T18:11:40;4.83;;;4.43;;
2854;SDS011;1435;49.472;10.940;2023-05-13T18:16:43;6.80;;;5.93;;
2854;SDS011;1435;49.472;10.940;2023-05-13T18:21:45;10.97;;;8.87;;
2854;SDS011;1435;49.472;10.940;2023-05-13T18:26:46;22.03;;;16.80;;
2854;SDS011;1435;49.472;10.940;2023-05-13T18:31:49;9.33;;;7.13;;
2854;SDS011;1435;49.472;10.940;2023-05-13T18:36:51;9.83;;;8.53;;
2854;SDS011;1435;49.472;10.940;2023-05-13T18:41:53;9.30;;;8.40;;
2854;SDS011;1435;49.472;10.940;2023-05-13T18:46:57;9.90;;;8.40;;
2854;SDS011;1435;49.472;10.940;2023-05-13T18:51:58;10.20;;;8.50;;
2854;SDS011;1435;49.472;10.940;2023-05-13T18:57:00;14.70;;;13.30;;
2854;SDS011;1435;49.472;10.940;2023-05-13T19:02:03;7.90;;;7.20;;
2854;SDS011;1435;49.472;10.940;2023-05-13T19:07:05;6.30;;;5.70;;
2854;SDS011;1435;49.472;10.940;2023-05-13T19:12:07;5.20;;;4.70;;
2854;SDS011;1435;49.472;10.940;2023-05-13T19:17:10;6.83;;;6.23;;
2854;SDS011;1435;49.472;10.940;2023-05-13T19:22:12;6.20;;;5.70;;
2854;SDS011;1435;49.472;10.940;2023-05-13T19:27:14;10.93;;;9.80;;
2854;SDS011;1435;49.472;10.940;2023-05-13T19:32:17;12.80;;;8.70;;
2854;SDS011;1435;49.472;10.940;2023-05-13T19:37:19;8.97;;;8.10;;
2854;SDS011;1435;49.472;10.940;2023-05-13T19:42:20;16.83;;;15.03;;
2854;SDS011;1435;49.472;10.940;2023-05-13T19:47:24;12.37;;;10.20;;
2854;SDS011;1435;49.472;10.940;2023-05-13T19:52:26;7.53;;;6.83;;
2854;SDS011;1435;49.472;10.940;2023-05-13T19:57:28;6.37;;;5.77;;
2854;SDS011;1435;49.472;10.940;2023-05-13T20:02:31;5.60;;;5.07;;
2854;SDS011;1435;49.472;10.940;2023-05-13T20:07:33;5.37;;;4.50;;
2854;SDS011;1435;49.472;10.940;2023-05-13T20:12:35;5.30;;;4.80;;
2854;SDS011;1435;49.472;10.940;2023-05-13T20:17:38;6.50;;;4.73;;
2854;SDS011;1435;49.472;10.940;2023-05-13T20:22:39;6.40;;;4.40;;
2854;SDS011;1435;49.472;10.940;2023-05-13T20:27:41;7.70;;;5.20;;
2854;SDS011;1435;49.472;10.940;2023-05-13T20:32:44;5.90;;;5.40;;
2854;SDS011;1435;49.472;10.940;2023-05-13T20:37:46;8.50;;;5.23;;
2854;SDS011;1435;49.472;10.940;2023-05-13T20:42:48;5.97;;;5.47;;
2854;SDS011;1435;49.472;10.940;2023-05-13T20:47:51;6.27;;;5.73;;
2854;SDS011;1435;49.472;10.940;2023-05-13T20:52:52;5.97;;;5.37;;
2854;SDS011;1435;49.472;10.940;2023-05-13T20:57:54;6.10;;;5.50;;
2854;SDS011;1435;49.472;10.940;2023-05-13T21:02:58;6.10;;;5.37;;
2854;SDS011;1435;49.472;10.940;2023-05-13T21:07:59;6.33;;;5.73;;
2854;SDS011;1435;49.472;10.940;2023-05-13T21:13:01;5.43;;;4.93;;
2854;SDS011;1435;49.472;10.940;2023-05-13T21:18:04;6.33;;;5.67;;
2854;SDS011;1435;49.472;10.940;2023-05-13T21:23:06;6.13;;;5.63;;
2854;SDS011;1435;49.472;10.940;2023-05-13T21:28:08;7.27;;;6.63;;
2854;SDS011;1435;49.472;10.940;2023-05-13T21:33:11;6.70;;;6.10;;
2854;SDS011;1435;49.472;10.940;2023-05-13T21:38:12;7.87;;;6.80;;
2854;SDS011;1435;49.472;10.940;2023-05-13T21:43:14;6.10;;;5.50;;
2854;SDS011;1435;49.472;10.940;2023-05-13T21:48:17;7.17;;;6.47;;
2854;SDS011;1435;49.472;10.940;2023-05-13T21:53:19;7.50;;;6.40;;
2854;SDS011;1435;49.472;10.940;2023-05-13T21:58:21;9.70;;;6.70;;
2854;SDS011;1435;49.472;10.940;2023-05-13T22:03:24;7.00;;;6.20;;
2854;SDS011;1435;49.472;10.940;2023-05-13T22:08:26;8.60;;;7.67;;
2854;SDS011;1435;49.472;10.940;2023-05-13T22:13:28;7.50;;;6.03;;
2854;SDS011;1435;49.472;10.940;2023-05-13T22:18:31;7.47;;;6.77;;
2854;SDS011;1435;49.472;10.940;2023-05-13T22:23:32;6.40;;;5.70;;
2854;SDS011;1435;49.472;10.940;2023-05-13T22:28:34;7.20;;;6.50;;
2854;SDS011;1435;49.472;10.940;2023-05-13T22:33:40;6.80;;;6.10;;
2854;SDS011;1435;49.472;10.940;2023-05-13T22:38:43;7.40;;;6.70;;
2854;SDS011;1435;49.472;10.940;2023-05-13T22:43:45;8.77;;;6.80;;
2854;SDS011;1435;49.472;10.940;2023-05-13T22:48:48;7.63;;;6.93;;
2854;SDS011;1435;49.472;10.940;2023-05-13T22:53:50;7.50;;;6.80;;
2854;SDS011;1435;49.472;10.940;2023-05-13T22:58:52;7.63;;;6.93;;
2854;SDS011;1435;49.472;10.940;2023-05-13T23:03:55;7.17;;;6.57;;
2854;SDS011;1435;49.472;10.940;2023-05-13T23:08:57;6.60;;;6.00;;
2854;SDS011;1435;49.472;10.940;2023-05-13T23:13:59;6.87;;;6.07;;
2854;SDS011;1435;49.472;10.940;2023-05-13T23:19:02;7.00;;;6.37;;
2854;SDS011;1435;49.472;10.940;2023-05-13T23:24:03;7.33;;;6.73;;
2854;SDS011;1435;49.472;10.940;2023-05-13T23:29:05;7.63;;;6.90;;
2854;SDS011;1435;49.472;10.940;2023-05-13T23:34:09;8.40;;;7.60;;
2854;SDS011;1435;49.472;10.940;2023-05-13T23:39:11;6.87;;;6.17;;
2854;SDS011;1435;49.472;10.940;2023-05-13T23:44:13;6.73;;;6.07;;
2854;SDS011;1435;49.472;10.940;2023-05-13T23:49:16;7.93;;;6.33;;
2854;SDS011;1435;49.472;10.940;2023-05-13T23:54:17;7.03;;;6.33;;
2854;SDS011;1435;49.472;10.940;2023-05-13T23:59:19;8.37;;;7.47;;
